DAOR/CBH METAR and TAF weather

Enter ICAO airport designator
Station Type Date Time Source
DAOR METAR 2019/02/21 16:00 UTC NOAA

DAOR 211600Z 07007KT 8000 NSC 20/M09 Q1025


Station Type Date Time Source
DAOR Decoded METAR 2019/02/21 16:00 UTC NOAA

Bechar, Algeria (DAOR) 31-37N 002-14W 773M
Feb 21, 2019 - 11:00 AM EST / 2019.02.21 1600 UTC
Wind: from the ENE (070 degrees) at 8 MPH (7 KT):0
Visibility: 4 mile(s):0
Temperature: 68 F (20 C)
Dew Point: 15 F (-9 C)
Relative Humidity: 13%
Pressure (altimeter): 30.27 in. Hg (1025 hPa)
ob: DAOR 211600Z 07007KT 8000 NSC 20/M09 Q1025
cycle: 16

Station Type Date Time Source
DAOR TAF 2017/11/09 18:03 UTC NOAA

TAF DAOR 091700Z 0918/1009 35010KT 6000 FEW033 SCT100
TEMPO 0918/0924 3000 BLSA PROB40
TEMPO 0918/0924 35020G35KT 2000 -TSRA FEW030CB


Example: see airport list